Time;durP1;ratioP1;P1;durP2;ratioP2;P2;SDS_P1;SDS_P2;PMS_P1;PMS_P2;Temp;Humidity;BMP_temperature;BMP_pressure;BME280_temperature;BME280_humidity;BME280_pressure;Samples;Min_cycle;Max_cycle;Signal;HPM_P1;HPM_P2
2022/05/01 00:00:06;;;;;;;8.40;5.90;;;;;;;7.94;72.64;101465.83;1768157;80;21422;-78
2022/05/01 00:02:32;;;;;;;10.72;6.67;;;;;;;7.99;72.34;101460.85;1768166;81;20891;-78
2022/05/01 00:04:59;;;;;;;10.50;6.15;;;;;;;7.99;72.31;101463.92;1768512;80;20952;-78
2022/05/01 00:07:26;;;;;;;11.60;5.75;;;;;;;8.03;72.39;101464.22;1768396;81;21117;-79
2022/05/01 00:09:54;;;;;;;9.30;7.33;;;;;;;8.10;72.32;101467.00;1768147;80;20908;-77
2022/05/01 00:12:21;;;;;;;11.05;7.45;;;;;;;8.17;71.87;101472.86;1768273;81;20901;-77
2022/05/01 00:14:48;;;;;;;12.13;7.42;;;;;;;8.16;71.44;101475.05;1768117;81;21465;-80
2022/05/01 00:17:14;;;;;;;10.72;6.55;;;;;;;8.12;71.44;101476.09;1768221;81;20893;-79
2022/05/01 00:19:41;;;;;;;9.55;6.83;;;;;;;8.10;71.79;101477.45;1768611;81;21851;-78
2022/05/01 00:22:07;;;;;;;6.35;5.75;;;;;;;8.10;71.68;101478.30;1768104;81;20983;-79
2022/05/01 00:24:36;;;;;;;7.60;5.92;;;;;;;8.10;71.64;101477.45;1768195;81;21113;-79
2022/05/01 00:27:03;;;;;;;7.17;6.12;;;;;;;8.09;71.61;101484.87;1768392;81;21347;-79
2022/05/01 00:29:31;;;;;;;10.68;6.33;;;;;;;8.05;71.47;101480.23;1768668;81;20933;-77
2022/05/01 00:31:58;;;;;;;10.40;6.42;;;;;;;8.00;71.51;101482.59;1769183;80;21161;-78
2022/05/01 00:37:09;;;;;;;12.35;6.90;;;;;;;7.86;71.51;101483.08;1768365;81;21066;-79
2022/05/01 00:39:35;;;;;;;8.58;6.20;;;;;;;7.81;71.74;101493.69;1768296;81;20928;-79
2022/05/01 00:42:02;;;;;;;10.90;5.95;;;;;;;7.76;71.85;101496.05;1768663;80;20907;-79
2022/05/01 00:44:29;;;;;;;9.85;6.53;;;;;;;7.72;72.12;101504.45;1770131;80;21220;-78
2022/05/01 00:46:59;;;;;;;13.62;6.85;;;;;;;7.71;72.40;101501.87;1775251;80;20920;-78
2022/05/01 00:49:26;;;;;;;11.40;6.92;;;;;;;7.70;72.63;101502.34;1775214;80;20889;-80
2022/05/01 00:52:06;;;;;;;10.88;6.90;;;;;;;7.72;72.82;101504.91;1775179;80;21430;-80
2022/05/01 00:54:32;;;;;;;9.05;6.83;;;;;;;7.75;72.62;101499.57;1774296;80;20924;-79
2022/05/01 00:57:03;;;;;;;11.35;7.17;;;;;;;7.78;72.27;101496.42;1775311;80;21184;-80
2022/05/01 00:59:30;;;;;;;10.18;6.87;;;;;;;7.82;72.20;101492.77;1775336;80;21438;-78
2022/05/01 01:01:57;;;;;;;9.48;7.15;;;;;;;7.85;72.07;101492.68;1775306;80;21374;-79
2022/05/01 01:04:24;;;;;;;10.28;6.80;;;;;;;7.89;72.08;101499.52;1775181;80;20897;-78
2022/05/01 01:06:50;;;;;;;11.57;7.25;;;;;;;7.95;71.88;101498.42;1775491;80;20964;-78
2022/05/01 01:09:17;;;;;;;7.85;6.30;;;;;;;7.97;71.69;101496.62;1775769;80;21087;-78
2022/05/01 01:11:44;;;;;;;8.28;6.85;;;;;;;7.97;71.77;101493.16;1775169;80;20885;-78
2022/05/01 01:14:12;;;;;;;11.08;6.97;;;;;;;8.02;72.05;101501.67;1776649;80;20892;-78
2022/05/01 01:16:44;;;;;;;8.85;6.85;;;;;;;8.09;72.24;101495.32;1775320;80;20944;-77
2022/05/01 01:19:09;;;;;;;8.03;6.67;;;;;;;8.16;72.31;101484.20;1775716;80;21054;-79
2022/05/01 01:21:35;;;;;;;10.93;6.72;;;;;;;8.22;72.15;101493.12;1778173;80;21664;-79
2022/05/01 01:24:05;;;;;;;10.03;5.87;;;;;;;8.23;72.09;101491.78;1777964;79;20928;-79
2022/05/01 01:26:31;;;;;;;11.90;6.92;;;;;;;8.25;72.03;101492.58;1779102;79;20888;-79
2022/05/01 01:28:58;;;;;;;12.90;7.35;;;;;;;8.26;71.91;101496.03;1777182;79;20995;-79
2022/05/01 01:31:42;;;;;;;9.20;7.03;;;;;;;8.23;71.61;101502.69;1775726;80;20872;-79
2022/05/01 01:34:14;;;;;;;11.30;6.70;;;;;;;8.21;71.74;101507.96;1775536;80;21227;-79
2022/05/01 01:36:41;;;;;;;13.48;7.83;;;;;;;8.22;71.99;101503.12;1775424;80;20975;-80
2022/05/01 01:39:08;;;;;;;18.52;7.70;;;;;;;8.25;72.03;101505.64;1775443;80;20932;-79
2022/05/01 01:41:35;;;;;;;11.78;6.97;;;;;;;8.29;72.08;101502.45;1775561;80;21331;-79
2022/05/01 01:44:02;;;;;;;9.85;6.90;;;;;;;8.33;72.00;101497.97;1775354;80;20901;-79
2022/05/01 01:46:28;;;;;;;10.68;7.12;;;;;;;8.36;71.86;101509.18;1775704;80;21405;-80
2022/05/01 01:48:54;;;;;;;11.63;7.42;;;;;;;8.40;71.99;101504.67;1775496;80;20834;-78
2022/05/01 01:51:21;;;;;;;10.60;7.20;;;;;;;8.40;71.78;101505.98;1775621;80;20967;-78
2022/05/01 01:53:48;;;;;;;15.15;7.45;;;;;;;8.35;71.67;101505.30;1775443;80;20900;-79
2022/05/01 01:56:15;;;;;;;9.30;7.37;;;;;;;8.33;71.94;101500.12;1777038;80;20849;-78
2022/05/01 01:58:42;;;;;;;10.53;6.67;;;;;;;8.34;71.77;101504.46;1775367;80;21145;-78
2022/05/01 02:01:10;;;;;;;11.50;7.42;;;;;;;8.35;71.51;101501.39;1775277;80;20881;-79
2022/05/01 02:03:38;;;;;;;8.58;7.53;;;;;;;8.35;71.15;101502.69;1775439;80;20924;-78
2022/05/01 02:06:05;;;;;;;11.12;7.47;;;;;;;8.33;70.81;101505.81;1775276;80;20892;-78
2022/05/01 02:08:34;;;;;;;13.85;7.92;;;;;;;8.30;70.73;101513.31;1775361;80;20841;-78
2022/05/01 02:11:04;;;;;;;12.20;7.50;;;;;;;8.27;70.78;101514.71;1775846;80;21465;-79
2022/05/01 02:13:30;;;;;;;7.65;6.85;;;;;;;8.25;70.97;101515.25;1775335;80;21510;-78
2022/05/01 02:15:57;;;;;;;11.55;6.90;;;;;;;8.24;71.03;101515.67;1775434;80;20893;-78
2022/05/01 02:18:24;;;;;;;10.58;7.28;;;;;;;8.21;71.26;101514.50;1775622;80;20925;-79
2022/05/01 02:23:35;;;;;;;13.32;9.10;;;;;;;8.18;71.76;101518.53;1775376;80;21219;-79
2022/05/01 02:26:02;;;;;;;11.90;7.85;;;;;;;8.18;72.02;101515.92;1775538;80;20929;-79
2022/05/01 02:28:29;;;;;;;15.18;8.18;;;;;;;8.18;72.34;101517.23;1775410;80;21441;-78
2022/05/01 02:30:55;;;;;;;12.47;8.73;;;;;;;8.19;72.69;101516.30;1775565;80;20897;-78
2022/05/01 02:33:22;;;;;;;15.65;9.30;;;;;;;8.23;72.93;101519.67;1775838;80;20881;-77
2022/05/01 02:35:48;;;;;;;41.80;16.57;;;;;;;8.29;72.98;101522.05;1775384;80;21177;-79
2022/05/01 02:38:15;;;;;;;51.60;22.10;;;;;;;8.38;73.15;101515.64;1776082;80;20873;-79
2022/05/01 02:40:42;;;;;;;91.40;33.73;;;;;;;8.48;73.18;101527.05;1776844;80;20948;-78
2022/05/01 02:43:09;;;;;;;94.22;35.15;;;;;;;8.60;73.08;101528.34;1776315;80;21422;-79
2022/05/01 02:45:37;;;;;;;73.95;28.07;;;;;;;8.69;72.98;101525.41;1775596;80;21374;-79
2022/05/01 02:48:04;;;;;;;66.72;24.30;;;;;;;8.73;72.79;101527.90;1775517;80;21127;-78
2022/05/01 02:50:31;;;;;;;33.30;15.15;;;;;;;8.72;72.55;101529.67;1775269;80;20889;-78
2022/05/01 02:52:59;;;;;;;22.60;11.68;;;;;;;8.69;72.36;101522.80;1775789;80;20936;-78
2022/05/01 02:55:25;;;;;;;12.35;7.75;;;;;;;8.66;72.30;101529.43;1775274;80;20930;-79
2022/05/01 02:57:54;;;;;;;8.53;7.47;;;;;;;8.60;72.40;101534.03;1775359;80;20920;-79
2022/05/01 03:00:20;;;;;;;10.93;7.92;;;;;;;8.55;72.77;101539.44;1775681;80;21150;-79
2022/05/01 03:02:48;;;;;;;10.93;7.33;;;;;;;8.55;73.08;101543.36;1775403;80;20869;-78
2022/05/01 03:05:15;;;;;;;12.00;7.58;;;;;;;8.59;73.16;101546.72;1775324;80;20880;-79
2022/05/01 03:07:42;;;;;;;9.08;7.10;;;;;;;8.62;72.93;101542.67;1775372;80;20968;-78
2022/05/01 03:10:11;;;;;;;10.00;6.78;;;;;;;8.64;72.85;101541.70;1775307;80;20979;-79
2022/05/01 03:12:38;;;;;;;8.93;6.95;;;;;;;8.69;72.81;101548.95;1775285;80;21861;-78
2022/05/01 03:15:08;;;;;;;12.20;8.40;;;;;;;8.75;72.51;101554.84;1775554;80;21363;-78
2022/05/01 03:23:06;;;;;;;33.28;16.82;;;;;;;8.91;72.21;101558.15;1775936;80;20869;-78
2022/05/01 03:25:34;;;;;;;35.70;17.65;;;;;;;8.99;71.94;101560.92;1775343;80;21165;-78
2022/05/01 03:28:01;;;;;;;43.42;17.23;;;;;;;9.05;71.77;101564.62;1775428;80;20983;-78
2022/05/01 03:30:28;;;;;;;53.35;21.30;;;;;;;9.11;71.69;101563.05;1775363;80;20979;-80
2022/05/01 03:32:55;;;;;;;37.38;15.95;;;;;;;9.15;71.54;101571.64;1775252;80;21417;-79
2022/05/01 03:35:22;;;;;;;22.40;12.55;;;;;;;9.13;71.52;101574.31;1775452;80;21366;-80
2022/05/01 03:37:50;;;;;;;22.58;11.97;;;;;;;9.12;71.61;101572.63;1775361;80;21141;-79
2022/05/01 03:40:17;;;;;;;17.48;10.55;;;;;;;9.12;71.85;101573.94;1775278;80;20873;-79
2022/05/01 03:42:44;;;;;;;26.57;13.90;;;;;;;9.14;71.74;101577.34;1775277;80;21118;-80
2022/05/01 03:45:12;;;;;;;26.62;14.07;;;;;;;9.20;71.87;101572.31;1776211;80;21029;-79
2022/05/01 03:47:40;;;;;;;23.05;12.28;;;;;;;9.26;71.98;101571.61;1783603;80;20963;-79
2022/05/01 03:50:07;;;;;;;19.52;11.70;;;;;;;9.35;72.07;101574.33;1783996;80;21093;-78
2022/05/01 03:52:34;;;;;;;15.00;10.43;;;;;;;9.42;72.16;101573.16;1783746;80;21384;-78
2022/05/01 03:55:01;;;;;;;11.20;8.98;;;;;;;9.49;71.92;101573.34;1783750;80;20983;-79
2022/05/01 03:57:27;;;;;;;17.02;9.33;;;;;;;9.53;71.52;101576.20;1783573;80;21010;-80
2022/05/01 03:59:54;;;;;;;13.85;8.53;;;;;;;9.55;71.29;101578.77;1783603;80;20924;-79
2022/05/01 04:02:21;;;;;;;10.38;8.40;;;;;;;9.59;71.45;101583.44;1783880;80;21070;-80
2022/05/01 04:04:49;;;;;;;10.98;7.53;;;;;;;9.62;71.47;101576.30;1784719;80;20892;-78
2022/05/01 04:07:15;;;;;;;13.13;8.60;;;;;;;9.69;71.36;101577.77;1783618;80;20928;-79
2022/05/01 04:09:43;;;;;;;15.23;9.18;;;;;;;9.74;71.35;101582.82;1783470;80;20932;-80
2022/05/01 04:12:11;;;;;;;18.73;10.93;;;;;;;9.80;71.18;101581.70;1783941;80;20880;-78
2022/05/01 04:14:39;;;;;;;18.23;11.20;;;;;;;9.83;70.85;101575.89;1783530;80;21414;-80
2022/05/01 04:17:06;;;;;;;15.18;10.58;;;;;;;9.83;70.39;101577.20;1783806;80;20912;-80
2022/05/01 04:19:32;;;;;;;14.50;10.38;;;;;;;9.84;70.08;101576.27;1783617;80;20935;-79
2022/05/01 04:21:59;;;;;;;17.20;9.95;;;;;;;9.85;69.96;101585.84;1783503;80;20943;-80
2022/05/01 04:24:26;;;;;;;18.42;10.48;;;;;;;9.90;69.62;101590.43;1783906;80;20928;-79
2022/05/01 04:26:52;;;;;;;18.70;10.03;;;;;;;9.94;69.44;101590.70;1786173;80;21144;-79
2022/05/01 04:29:37;;;;;;;15.13;10.20;;;;;;;9.99;69.29;101588.35;1785936;80;20955;-78
2022/05/01 04:32:05;;;;;;;14.85;9.95;;;;;;;10.06;69.41;101590.63;1786406;79;21000;-79
2022/05/01 04:34:32;;;;;;;15.65;10.98;;;;;;;10.19;69.17;101589.66;1786337;78;21003;-78
2022/05/01 04:36:59;;;;;;;14.68;11.12;;;;;;;10.30;68.93;101586.16;1783604;80;21460;-79
2022/05/01 04:39:26;;;;;;;12.50;10.05;;;;;;;10.40;68.84;101591.83;1783593;80;22047;-79
2022/05/01 04:41:53;;;;;;;18.40;9.98;;;;;;;10.50;68.63;101589.68;1783492;80;20959;-80
2022/05/01 04:44:20;;;;;;;15.63;10.45;;;;;;;10.61;68.43;101599.23;1783572;80;20940;-79
2022/05/01 04:46:49;;;;;;;19.62;10.65;;;;;;;10.66;68.39;101593.31;1778824;80;20908;-78
2022/05/01 04:49:16;;;;;;;20.37;11.60;;;;;;;10.71;68.20;101587.86;1775399;80;20888;-80
2022/05/01 04:51:43;;;;;;;14.60;10.70;;;;;;;10.77;68.04;101583.19;1775319;80;21294;-81
2022/05/01 04:54:09;;;;;;;15.70;10.68;;;;;;;10.88;68.28;101584.02;1775521;80;20912;-80
2022/05/01 04:59:22;;;;;;;15.88;11.40;;;;;;;11.14;68.12;101584.59;1775355;80;20901;-80
2022/05/01 05:01:50;;;;;;;18.17;10.78;;;;;;;11.32;67.98;101578.94;1775326;80;20992;-80
2022/05/01 05:04:17;;;;;;;18.07;11.45;;;;;;;11.48;67.85;101575.11;1775154;80;21263;-78
2022/05/01 05:06:44;;;;;;;19.12;12.00;;;;;;;11.63;67.34;101582.24;1775747;80;20877;-81
2022/05/01 05:11:57;;;;;;;18.00;12.45;;;;;;;11.96;66.64;101586.32;1775388;80;21404;-79
2022/05/01 05:14:24;;;;;;;20.60;11.38;;;;;;;12.16;66.50;101578.73;1775639;80;20928;-79
2022/05/01 05:16:51;;;;;;;21.90;11.65;;;;;;;12.35;66.05;101582.56;1775396;80;21118;-79
2022/05/01 05:19:17;;;;;;;18.52;11.33;;;;;;;12.56;65.69;101580.61;1775767;80;20877;-80
2022/05/01 05:21:46;;;;;;;18.65;11.15;;;;;;;12.77;65.40;101586.97;1775436;80;20922;-80
2022/05/01 05:24:12;;;;;;;19.00;11.03;;;;;;;12.97;64.79;101587.20;1775426;80;21452;-80
2022/05/01 05:26:39;;;;;;;18.37;12.13;;;;;;;13.17;64.05;101585.64;1775746;80;21391;-80
2022/05/01 05:29:05;;;;;;;18.85;11.88;;;;;;;13.38;63.29;101580.13;1776052;80;21293;-80
2022/05/01 05:31:31;;;;;;;16.60;12.00;;;;;;;13.58;62.71;101586.43;1776080;80;20964;-80
2022/05/01 05:33:58;;;;;;;21.05;11.35;;;;;;;13.78;61.73;101587.92;1775722;80;20956;-80
2022/05/01 05:36:25;;;;;;;17.12;11.97;;;;;;;13.94;60.77;101587.03;1775291;80;20876;-80
2022/05/01 05:38:52;;;;;;;19.42;11.97;;;;;;;14.09;60.06;101592.28;1775435;80;20908;-79
2022/05/01 05:41:18;;;;;;;19.60;14.35;;;;;;;14.23;59.47;101598.05;1775825;80;21096;-82
2022/05/01 05:43:45;;;;;;;19.92;12.68;;;;;;;14.36;59.04;101597.29;1775336;80;20932;-80
2022/05/01 05:46:12;;;;;;;16.60;11.78;;;;;;;14.49;58.64;101597.77;1777713;80;20932;-82
2022/05/01 05:48:40;;;;;;;18.00;13.18;;;;;;;14.63;58.65;101598.30;1783478;80;21421;-80
2022/05/01 05:51:06;;;;;;;16.32;13.00;;;;;;;14.71;58.34;101598.66;1784024;80;20876;-82
2022/05/01 05:53:33;;;;;;;17.98;13.05;;;;;;;14.76;58.15;101602.33;1783638;80;21104;-82
2022/05/01 05:55:59;;;;;;;17.40;13.13;;;;;;;14.82;57.36;101599.80;1783940;80;20876;-82
2022/05/01 05:58:26;;;;;;;18.25;12.40;;;;;;;14.88;57.33;101601.58;1783597;80;20884;-82
2022/05/01 06:00:52;;;;;;;20.60;14.15;;;;;;;15.04;56.84;101601.95;1783744;80;20931;-80
2022/05/01 06:03:19;;;;;;;20.62;13.60;;;;;;;15.19;56.78;101602.78;1784069;80;20885;-81
2022/05/01 06:05:46;;;;;;;21.87;14.30;;;;;;;15.28;56.78;101595.09;1783741;80;21244;-82
2022/05/01 06:08:14;;;;;;;21.23;14.00;;;;;;;15.42;56.80;101602.61;1783570;80;21346;-80
2022/05/01 06:10:42;;;;;;;24.30;14.33;;;;;;;15.52;57.07;101599.28;1783708;80;21362;-81
2022/05/01 06:13:09;;;;;;;18.30;13.38;;;;;;;15.58;56.60;101594.53;1785220;80;20974;-80
2022/05/01 06:15:38;;;;;;;21.50;14.93;;;;;;;15.59;56.33;101592.27;1783702;80;20892;-81
2022/05/01 06:18:04;;;;;;;20.77;13.95;;;;;;;15.63;55.74;101599.03;1783980;80;21118;-81
2022/05/01 06:20:31;;;;;;;21.12;14.80;;;;;;;15.71;55.61;101594.12;1783607;80;20904;-82
2022/05/01 06:22:58;;;;;;;17.98;14.98;;;;;;;15.83;54.54;101589.36;1783614;80;20967;-80
2022/05/01 06:25:25;;;;;;;22.32;14.98;;;;;;;16.00;54.67;101590.86;1783845;80;20857;-80
2022/05/01 06:27:57;;;;;;;19.35;14.78;;;;;;;16.30;53.66;101589.74;1783791;80;21053;-83
2022/05/01 06:30:20;;;;;;;19.48;15.18;;;;;;;16.57;52.81;101588.30;1781609;80;21500;-81
2022/05/01 06:32:46;;;;;;;18.52;14.33;;;;;;;16.93;52.08;101592.83;1784035;80;20948;-81
2022/05/01 06:35:13;;;;;;;16.93;13.58;;;;;;;17.27;50.70;101597.02;1783798;80;21346;-82
2022/05/01 06:37:39;;;;;;;19.32;13.68;;;;;;;17.58;49.95;101594.28;1783692;80;20940;-83
2022/05/01 06:40:06;;;;;;;20.88;13.18;;;;;;;17.92;49.56;101591.83;1784431;80;20849;-81
2022/05/01 06:42:33;;;;;;;17.45;11.50;;;;;;;18.31;48.10;101596.85;1783917;80;21408;-81
2022/05/01 06:45:00;;;;;;;18.55;12.93;;;;;;;18.88;47.21;101597.77;1783602;80;20944;-81
2022/05/01 06:47:27;;;;;;;15.78;11.55;;;;;;;19.42;45.12;101597.77;1783659;80;20959;-82
2022/05/01 06:49:54;;;;;;;16.90;10.38;;;;;;;20.02;44.32;101590.16;1783827;80;20960;-83
2022/05/01 06:52:23;;;;;;;17.95;10.10;;;;;;;20.61;43.95;101591.37;1783807;80;21457;-82
2022/05/01 06:54:54;;;;;;;12.33;9.60;;;;;;;21.22;41.72;101589.58;1784956;80;21837;-79
2022/05/01 06:57:21;;;;;;;13.00;8.78;;;;;;;21.82;40.47;101591.67;1784085;80;20928;-81
2022/05/01 06:59:47;;;;;;;10.23;8.70;;;;;;;22.37;37.24;101592.38;1783632;80;20849;-81
2022/05/01 07:02:14;;;;;;;11.95;7.37;;;;;;;22.71;36.67;101595.34;1784093;80;20900;-81
2022/05/01 07:04:41;;;;;;;8.88;6.92;;;;;;;23.16;35.22;101595.89;1783787;80;21460;-81
2022/05/01 07:07:08;;;;;;;11.45;7.92;;;;;;;23.42;34.88;101594.34;1783699;80;21122;-80
2022/05/01 07:09:34;;;;;;;12.05;6.60;;;;;;;23.37;33.59;101599.64;1783974;80;20915;-80
2022/05/01 07:12:01;;;;;;;8.13;7.15;;;;;;;23.25;34.17;101588.80;1783979;80;20967;-81
2022/05/01 07:14:27;;;;;;;12.75;7.45;;;;;;;23.15;34.99;101597.41;1783953;80;20904;-82
2022/05/01 07:16:54;;;;;;;8.23;6.45;;;;;;;22.93;33.94;101594.11;1783765;80;20896;-81
2022/05/01 07:19:21;;;;;;;10.03;6.50;;;;;;;22.71;33.82;101589.98;1783939;80;21125;-81
2022/05/01 07:21:48;;;;;;;7.25;5.12;;;;;;;22.46;32.93;101597.36;1783887;80;20833;-81
2022/05/01 07:24:14;;;;;;;7.42;5.10;;;;;;;22.13;31.71;101593.66;1784499;80;20896;-81
2022/05/01 07:26:43;;;;;;;9.43;5.60;;;;;;;21.72;32.33;101589.48;1784069;80;20936;-82
2022/05/01 07:29:10;;;;;;;8.83;5.83;;;;;;;21.43;33.01;101590.82;1784051;80;21085;-80
2022/05/01 07:31:39;;;;;;;6.37;4.47;;;;;;;21.11;33.67;101583.38;1784995;80;21264;-82
2022/05/01 07:34:05;;;;;;;5.92;5.03;;;;;;;20.99;32.71;101586.31;1786868;80;20892;-81
2022/05/01 07:36:32;;;;;;;11.35;5.80;;;;;;;21.03;31.73;101579.23;1786368;78;20931;-82
2022/05/01 07:38:58;;;;;;;10.08;5.55;;;;;;;21.09;31.95;101576.49;1786809;78;20963;-81
2022/05/01 07:41:25;;;;;;;7.20;4.25;;;;;;;21.26;31.80;101574.98;1785714;80;20892;-81
2022/05/01 07:43:55;;;;;;;5.22;4.65;;;;;;;21.44;30.78;101572.01;1784061;80;22068;-81
2022/05/01 07:46:22;;;;;;;7.25;4.90;;;;;;;21.61;31.52;101567.81;1783326;80;20983;-80
2022/05/01 07:48:49;;;;;;;9.93;5.72;;;;;;;21.73;30.40;101577.34;1775724;80;20956;-84
2022/05/01 07:51:16;;;;;;;6.95;4.95;;;;;;;21.65;30.73;101571.02;1776203;80;20928;-82
2022/05/01 07:53:42;;;;;;;7.83;4.67;;;;;;;21.51;29.68;101574.96;1775929;80;20944;-80
2022/05/01 07:56:09;;;;;;;8.50;5.58;;;;;;;21.39;30.81;101582.23;1775762;80;21957;-81
2022/05/01 07:58:36;;;;;;;10.93;5.28;;;;;;;21.26;31.80;101578.98;1775712;80;20952;-81
2022/05/01 08:01:03;;;;;;;7.37;5.30;;;;;;;21.09;31.24;101577.33;1776213;80;20939;-81
2022/05/01 08:06:19;;;;;;;7.17;4.10;;;;;;;20.75;30.72;101574.66;1776153;80;20920;-80
2022/05/01 08:08:45;;;;;;;7.65;5.72;;;;;;;20.55;30.34;101573.20;1775674;80;21231;-81
2022/05/01 08:11:13;;;;;;;6.60;3.85;;;;;;;20.40;30.09;101570.54;1775864;80;20932;-81
2022/05/01 08:13:41;;;;;;;4.35;3.87;;;;;;;20.22;30.79;101568.97;1775815;80;20917;-82
2022/05/01 08:16:08;;;;;;;5.80;4.10;;;;;;;20.04;31.48;101570.89;1776459;80;21307;-81
2022/05/01 08:21:21;;;;;;;6.00;4.05;;;;;;;19.75;30.48;101568.04;1776412;80;21150;-83
2022/05/01 08:23:49;;;;;;;9.05;3.42;;;;;;;19.68;32.12;101562.84;1775802;80;20869;-82
2022/05/01 08:26:17;;;;;;;4.75;3.40;;;;;;;19.69;31.17;101563.22;1776421;80;20889;-81
2022/05/01 08:28:45;;;;;;;4.53;3.50;;;;;;;19.71;30.56;101565.27;1776407;80;20896;-81
2022/05/01 08:31:13;;;;;;;6.75;2.72;;;;;;;19.63;29.80;101561.91;1775704;80;20881;-81
2022/05/01 08:33:40;;;;;;;3.50;2.85;;;;;;;19.49;30.06;101562.19;1775932;80;20956;-81
2022/05/01 08:36:07;;;;;;;3.52;1.50;;;;;;;19.41;30.44;101559.33;1775557;80;20853;-80
2022/05/01 08:38:36;;;;;;;1.65;1.20;;;;;;;19.39;28.15;101554.13;1775691;80;21323;-82
2022/05/01 08:41:02;;;;;;;4.03;1.57;;;;;;;19.27;26.52;101551.13;1775812;80;20976;-82
2022/05/01 08:43:31;;;;;;;4.30;1.80;;;;;;;19.12;27.55;101554.59;1775838;80;21504;-82
2022/05/01 08:46:21;;;;;;;5.70;2.00;;;;;;;19.13;29.58;101558.08;1775728;80;21221;-81
2022/05/01 08:49:06;;;;;;;3.40;1.90;;;;;;;19.15;28.97;101556.14;1767801;80;20893;-81
2022/05/01 08:51:38;;;;;;;27.95;22.52;;;;;;;19.20;28.23;101556.11;1768552;81;20976;-80
2022/05/01 08:54:11;;;;;;;14.50;11.73;;;;;;;19.24;27.05;101546.08;1768448;81;20889;-81
2022/05/01 08:56:41;;;;;;;4.12;2.75;;;;;;;19.24;27.51;101550.91;1767776;81;20940;-81
2022/05/01 09:01:33;;;;;;;2.37;1.15;;;;;;;19.40;27.30;101544.33;1798832;79;22563;-81
2022/05/01 09:04:00;;;;;;;1.82;1.17;;;;;;;19.32;26.58;101536.13;1759409;81;20876;-81
2022/05/01 09:06:27;;;;;;;5.85;1.92;;;;;;;19.34;27.56;101538.17;1758350;81;21920;-81
2022/05/01 09:08:56;;;;;;;2.60;2.35;;;;;;;19.40;26.62;101539.01;1758432;80;21350;-80
2022/05/01 09:14:12;;;;;;;2.35;1.17;;;;;;;19.46;26.01;101534.02;1758516;80;20893;-82
2022/05/01 09:16:39;;;;;;;2.50;1.40;;;;;;;19.93;26.23;101535.52;1758604;81;20916;-81
2022/05/01 09:19:06;;;;;;;3.15;1.87;;;;;;;20.54;25.34;101534.69;1758519;80;21126;-82
2022/05/01 09:21:53;;;;;;;4.47;1.67;;;;;;;21.22;25.09;101525.05;1758620;81;21461;-81
2022/05/01 09:24:29;;;;;;;4.85;2.10;;;;;;;21.92;26.46;101524.41;1758490;80;20857;-79
2022/05/01 09:26:57;;;;;;;5.42;2.30;;;;;;;22.68;24.58;101536.81;1758262;80;20975;-82
2022/05/01 09:29:26;;;;;;;4.22;2.55;;;;;;;23.30;23.40;101514.73;1758271;80;20951;-82
2022/05/01 09:31:53;;;;;;;2.80;1.95;;;;;;;23.80;24.11;101519.53;1758671;81;21253;-81
2022/05/01 09:34:24;;;;;;;3.40;2.20;;;;;;;24.33;23.39;101515.82;1758717;81;20931;-82
2022/05/01 09:36:52;;;;;;;2.72;1.65;;;;;;;24.73;22.78;101514.34;1758514;81;20873;-82
2022/05/01 09:39:21;;;;;;;1.98;1.42;;;;;;;25.09;22.40;101511.39;1758318;81;20947;-80
2022/05/01 09:41:49;;;;;;;1.72;1.62;;;;;;;25.46;22.55;101509.25;1757618;81;21401;-82
2022/05/01 09:44:19;;;;;;;2.90;1.95;;;;;;;25.63;21.94;101505.55;1758331;80;21462;-81
2022/05/01 09:46:48;;;;;;;4.65;2.22;;;;;;;25.76;21.34;101509.08;1759402;81;20920;-79
2022/05/01 09:49:17;;;;;;;4.15;2.72;;;;;;;25.70;20.90;101499.00;1758669;81;20936;-81
2022/05/01 09:51:55;;;;;;;3.83;2.25;;;;;;;25.41;21.63;101499.88;1756455;80;21481;-82
2022/05/01 09:54:25;;;;;;;2.67;1.82;;;;;;;25.23;20.95;101497.36;1758509;80;20959;-82
2022/05/01 09:57:00;;;;;;;1.92;1.70;;;;;;;24.96;21.67;101507.84;1758314;81;21167;-83
2022/05/01 09:59:28;;;;;;;3.02;1.92;;;;;;;24.74;22.79;101504.44;1757519;81;20923;-81
2022/05/01 10:02:06;;;;;;;3.15;2.15;;;;;;;24.46;21.31;101500.64;1745379;81;20877;-82
2022/05/01 10:04:34;;;;;;;4.65;2.60;;;;;;;24.15;21.41;101500.33;1709355;83;20944;-82
2022/05/01 10:07:01;;;;;;;3.98;1.98;;;;;;;23.81;21.60;101502.45;1709656;84;20884;-82
2022/05/01 10:09:30;;;;;;;2.85;2.52;;;;;;;23.51;21.47;101496.52;1709338;83;21144;-80
2022/05/01 10:11:58;;;;;;;2.42;1.98;;;;;;;23.15;22.13;101507.76;1709001;84;20892;-82
2022/05/01 10:14:26;;;;;;;3.60;2.83;;;;;;;23.05;22.60;101501.13;1709059;84;21453;-82
2022/05/01 10:16:54;;;;;;;2.45;2.20;;;;;;;23.23;21.95;101496.27;1708937;82;21504;-80
2022/05/01 10:19:25;;;;;;;5.00;2.60;;;;;;;23.42;22.55;101500.13;1708930;84;21495;-82
2022/05/01 10:22:03;;;;;;;2.50;1.92;;;;;;;23.56;22.40;101499.56;1709184;84;21215;-81
2022/05/01 10:24:28;;;;;;;2.62;2.42;;;;;;;23.65;22.36;101495.62;1708375;82;20928;-80
2022/05/01 10:27:22;;;;;;;6.80;3.62;;;;;;;23.81;23.00;101483.70;1709243;84;21389;-81
2022/05/01 10:33:28;;;;;;;5.62;3.83;;;;;;;23.76;24.08;101486.02;1708942;82;20884;-82
2022/05/01 10:36:22;;;;;;;12.43;4.65;;;;;;;23.83;24.53;101485.72;1708576;84;21149;-81
2022/05/01 10:39:09;;;;;;;4.42;3.37;;;;;;;23.88;24.90;101486.58;1710438;84;21476;-81
2022/05/01 10:41:41;;;;;;;3.47;2.50;;;;;;;24.02;24.68;101486.52;1711767;84;20900;-81
2022/05/01 10:44:28;;;;;;;5.92;3.00;;;;;;;24.06;24.68;101482.53;1711066;84;20920;-82
2022/05/01 10:46:55;;;;;;;5.10;2.70;;;;;;;24.12;24.51;101484.07;1710312;84;20919;-81
2022/05/01 10:49:36;;;;;;;6.58;3.72;;;;;;;24.17;24.28;101481.73;1709457;82;21786;-81
2022/05/01 10:52:21;;;;;;;5.10;4.10;;;;;;;24.22;24.28;101481.26;1709103;82;21057;-80
2022/05/01 10:54:58;;;;;;;3.20;2.52;;;;;;;24.17;24.39;101476.89;1708051;83;21075;-82
2022/05/01 10:57:25;;;;;;;4.40;2.95;;;;;;;24.13;24.33;101482.22;1709250;82;21469;-83
2022/05/01 11:00:05;;;;;;;4.40;2.72;;;;;;;24.02;23.64;101475.80;1744502;81;20924;-78
2022/05/01 11:02:45;;;;;;;5.53;3.35;;;;;;;23.95;24.32;101469.73;1759119;81;21134;-82
2022/05/01 11:05:44;;;;;;;3.90;2.62;;;;;;;23.97;23.92;101470.92;1757982;81;20986;-81
2022/05/01 11:08:20;;;;;;;6.37;2.75;;;;;;;24.02;25.22;101468.59;1758024;81;20968;-83
2022/05/01 11:10:47;;;;;;;5.78;4.42;;;;;;;24.08;23.77;101465.28;1758419;81;20951;-79
2022/05/01 11:13:18;;;;;;;7.22;4.53;;;;;;;24.13;24.73;101470.16;1742493;81;20920;-80
2022/05/01 11:15:50;;;;;;;6.17;4.87;;;;;;;24.17;23.76;101459.47;1758093;81;21838;-81
2022/05/01 11:18:23;;;;;;;3.15;2.67;;;;;;;24.05;24.60;101460.22;1758005;80;21445;-81
2022/05/01 11:20:50;;;;;;;5.40;3.20;;;;;;;23.89;24.70;101466.34;1757354;81;20873;-80
2022/05/01 11:23:33;;;;;;;5.55;3.95;;;;;;;23.64;24.48;101469.84;1757967;81;20901;-81
2022/05/01 11:26:07;;;;;;;7.28;4.80;;;;;;;23.47;24.76;101465.69;1758074;80;21027;-81
2022/05/01 11:28:49;;;;;;;5.90;3.25;;;;;;;23.30;24.50;101461.20;1757473;81;21241;-81
2022/05/01 11:31:48;;;;;;;8.38;3.72;;;;;;;23.05;24.27;101462.33;1758092;81;20920;-80
2022/05/01 11:34:26;;;;;;;6.75;4.25;;;;;;;22.83;25.24;101468.93;1757958;81;20924;-80
2022/05/01 11:37:08;;;;;;;6.42;4.60;;;;;;;22.58;25.31;101467.84;1757966;81;20991;-81
2022/05/01 11:39:53;;;;;;;6.95;3.72;;;;;;;22.44;25.53;101464.34;1757930;80;21011;-82
2022/05/01 11:42:36;;;;;;;;;;;;;;;22.24;25.62;101463.09;1760633;80;21927;-81
2022/05/01 11:45:04;;;;;;;5.97;4.10;;;;;;;22.07;25.45;101457.98;1758062;80;20435;-81
2022/05/01 11:47:32;;;;;;;9.85;4.95;;;;;;;21.92;26.09;101460.31;1758294;81;20912;-81
2022/05/01 11:49:59;;;;;;;7.05;3.95;;;;;;;21.88;27.38;101450.91;1757900;80;20904;-81
2022/05/01 11:52:26;;;;;;;7.92;4.50;;;;;;;21.86;27.74;101450.70;1758399;80;20936;-81
2022/05/01 11:54:58;;;;;;;6.53;4.25;;;;;;;21.82;27.71;101455.48;1759439;80;21809;-84
2022/05/01 12:03:07;;;;;;;8.65;4.25;;;;;;;21.48;26.13;101443.98;1736267;81;20979;-81
2022/05/01 12:05:45;;;;;;;4.42;2.67;;;;;;;21.33;25.71;101438.70;1736246;82;20980;-82